Time;durP1;ratioP1;P1;durP2;ratioP2;P2;SDS_P1;SDS_P2;PMS_P1;PMS_P2;Temp;Humidity;BMP_temperature;BMP_pressure;BME280_temperature;BME280_humidity;BME280_pressure;Samples;Min_cycle;Max_cycle;Signal;HPM_P1;HPM_P2
2023/08/02 00:02:33;;;;;;;;;;;;;;;17.67;68.42;98592.84;4966661;28;5181;-76
2023/08/02 00:05:25;;;;;;;;;;;;;;;17.66;68.10;98585.81;4967471;28;5353;-73
2023/08/02 00:08:17;;;;;;;;;;;;;;;17.65;68.12;98585.00;4968851;28;5135;-75
2023/08/02 00:11:09;;;;;;;;;;;;;;;17.65;68.27;98586.94;4967390;28;4810;-77
2023/08/02 00:14:01;;;;;;;;;;;;;;;17.63;68.22;98586.44;4967167;28;4611;-74
2023/08/02 00:16:52;;;;;;;;;;;;;;;17.63;68.23;98584.50;4967286;28;4910;-75
2023/08/02 00:19:44;;;;;;;;;;;;;;;17.61;68.22;98578.56;4969570;28;5028;-75
2023/08/02 00:22:36;;;;;;;;;;;;;;;17.62;67.95;98573.94;4968616;28;5321;-75
2023/08/02 00:25:28;;;;;;;;;;;;;;;17.60;68.04;98579.69;4969868;28;4871;-74
2023/08/02 00:28:20;;;;;;;;;;;;;;;17.60;68.07;98584.34;4967086;28;4626;-75
2023/08/02 00:31:12;;;;;;;;;;;;;;;17.17;68.10;98517.69;4967537;28;4985;-76
2023/08/02 00:34:04;;;;;;;;;;;;;;;17.58;68.06;98575.66;4974048;28;4581;-74
2023/08/02 00:36:56;;;;;;;;;;;;;;;17.58;68.09;98572.94;4973473;28;5072;-75
2023/08/02 00:39:48;;;;;;;;;;;;;;;17.56;68.17;98581.44;4973938;28;4800;-75
2023/08/02 00:42:40;;;;;;;;;;;;;;;17.56;68.18;98578.72;4973127;28;4633;-73
2023/08/02 00:45:32;;;;;;;;;;;;;;;17.55;67.98;98577.09;4972598;28;4540;-74
2023/08/02 00:48:24;;;;;;;;;;;;;;;17.55;68.02;98585.25;4972565;28;4462;-74
2023/08/02 00:51:16;;;;;;;;;;;;;;;17.54;68.22;98591.84;4972668;28;5158;-75
2023/08/02 00:54:08;;;;;;;;;;;;;;;17.53;68.23;98582.06;4972124;28;5045;-76
2023/08/02 00:57:00;;;;;;;;;;;;;;;16.98;68.07;98506.25;4972200;28;4653;-74
2023/08/02 00:59:52;;;;;;;;;;;;;;;17.52;68.17;98585.09;4971816;28;4231;-76
2023/08/02 01:02:44;;;;;;;;;;;;;;;17.51;68.12;98587.00;4972173;28;4393;-77
2023/08/02 01:05:36;;;;;;;;;;;;;;;17.51;67.94;98588.94;4971250;28;5102;-75
2023/08/02 01:08:29;;;;;;;;;;;;;;;17.50;67.93;98585.41;4969140;28;5093;-75
2023/08/02 01:11:21;;;;;;;;;;;;;;;17.48;68.01;98585.72;4970085;28;4537;-76
2023/08/02 01:14:13;;;;;;;;;;;;;;;17.48;67.99;98587.66;4970807;28;5078;-74
2023/08/02 01:17:05;;;;;;;;;;;;;;;17.48;67.83;98584.94;4967697;28;5204;-75
2023/08/02 01:19:57;;;;;;;;;;;;;;;17.47;67.80;98583.28;4970458;28;5275;-73
2023/08/02 01:22:49;;;;;;;;;;;;;;;17.46;68.10;98581.69;4971287;28;5207;-76
2023/08/02 01:25:41;;;;;;;;;;;;;;;17.47;67.93;98580.56;4971174;28;5183;-74
2023/08/02 01:28:33;;;;;;;;;;;;;;;17.46;67.70;98578.97;4971165;28;5091;-75
2023/08/02 01:31:25;;;;;;;;;;;;;;;17.45;67.82;98586.34;4970629;28;4672;-76
2023/08/02 01:34:17;;;;;;;;;;;;;;;17.45;68.00;98580.09;4970689;28;5032;-74
2023/08/02 01:37:09;;;;;;;;;;;;;;;17.45;67.88;98585.56;4970819;28;4532;-73
2023/08/02 01:40:01;;;;;;;;;;;;;;;17.43;67.76;98576.88;4969797;28;5182;-76
2023/08/02 01:42:53;;;;;;;;;;;;;;;17.43;67.85;98577.69;4969511;28;4975;-73
2023/08/02 01:45:45;;;;;;;;;;;;;;;17.42;67.65;98578.81;4969339;28;5404;-75
2023/08/02 01:48:37;;;;;;;;;;;;;;;17.41;67.84;98574.50;4970101;28;5196;-74
2023/08/02 01:51:29;;;;;;;;;;;;;;;17.41;67.85;98577.22;4967938;28;5201;-75
2023/08/02 01:54:21;;;;;;;;;;;;;;;17.40;67.87;98581.03;4970821;28;4598;-74
2023/08/02 01:57:13;;;;;;;;;;;;;;;17.40;67.83;98578.31;4970420;28;5190;-75
2023/08/02 02:00:05;;;;;;;;;;;;;;;17.41;67.87;98579.09;4969857;28;4629;-76
2023/08/02 02:02:57;;;;;;;;;;;;;;;17.39;67.85;98579.44;4968963;28;5160;-76
2023/08/02 02:05:49;;;;;;;;;;;;;;;17.38;67.86;98582.44;4971254;28;5186;-76
2023/08/02 02:08:41;;;;;;;;;;;;;;;17.37;67.79;98573.50;4969736;28;5229;-76
2023/08/02 02:11:33;;;;;;;;;;;;;;;17.37;67.57;98581.66;4969645;28;4480;-74
2023/08/02 02:14:25;;;;;;;;;;;;;;;17.36;67.79;98563.75;4967755;28;5174;-74
2023/08/02 02:17:17;;;;;;;;;;;;;;;17.36;67.61;98574.63;4967951;28;4303;-74
2023/08/02 02:20:09;;;;;;;;;;;;;;;17.35;67.77;98569.47;4969575;28;4583;-73
2023/08/02 02:23:01;;;;;;;;;;;;;;;17.35;67.66;98564.03;4971438;28;5166;-74
2023/08/02 02:25:53;;;;;;;;;;;;;;;17.34;67.69;98560.50;4969323;28;4397;-73
2023/08/02 02:28:45;;;;;;;;;;;;;;;17.33;67.46;98561.63;4968412;28;5068;-74
2023/08/02 02:31:37;;;;;;;;;;;;;;;17.32;67.68;98554.56;4968761;28;4624;-76
2023/08/02 02:34:29;;;;;;;;;;;;;;;17.31;67.71;98552.97;4970312;28;4874;-74
2023/08/02 02:37:21;;;;;;;;;;;;;;;17.31;67.73;98555.69;4968823;28;5150;-76
2023/08/02 02:40:13;;;;;;;;;;;;;;;17.31;67.66;98557.63;4970115;28;5134;-75
2023/08/02 02:43:05;;;;;;;;;;;;;;;17.31;67.73;98555.69;4969148;28;5124;-77
2023/08/02 02:45:56;;;;;;;;;;;;;;;17.30;67.55;98562.25;4969446;28;5181;-76
2023/08/02 02:48:48;;;;;;;;;;;;;;;17.29;67.63;98557.13;4969638;28;5372;-73
2023/08/02 02:51:40;;;;;;;;;;;;;;;17.28;67.48;98555.53;4968157;28;5292;-74
2023/08/02 02:54:32;;;;;;;;;;;;;;;17.28;67.47;98552.81;4970077;28;5233;-74
2023/08/02 02:57:24;;;;;;;;;;;;;;;17.26;67.66;98553.09;4968842;28;4981;-73
2023/08/02 03:00:16;;;;;;;;;;;;;;;17.27;67.61;98553.94;4970112;28;4598;-74
2023/08/02 03:03:08;;;;;;;;;;;;;;;17.25;67.66;98555.03;4969471;28;5058;-76
2023/08/02 03:06:00;;;;;;;;;;;;;;;17.25;67.59;98555.03;4970533;28;4580;-74
2023/08/02 03:08:52;;;;;;;;;;;;;;;17.23;67.47;98557.25;4972741;28;4644;-73
2023/08/02 03:11:44;;;;;;;;;;;;;;;17.23;67.59;98551.81;4969712;28;4298;-75
2023/08/02 03:14:36;;;;;;;;;;;;;;;17.22;67.40;98547.50;4970886;28;5293;-74
2023/08/02 03:17:28;;;;;;;;;;;;;;;17.22;67.56;98552.13;4968995;28;4541;-75
2023/08/02 03:20:20;;;;;;;;;;;;;;;17.21;67.63;98550.53;4969661;28;5010;-75
2023/08/02 03:23:12;;;;;;;;;;;;;;;17.21;67.59;98553.25;4971327;28;4587;-74
2023/08/02 03:26:04;;;;;;;;;;;;;;;17.20;67.45;98546.19;4969298;28;5144;-75
2023/08/02 03:28:56;;;;;;;;;;;;;;;17.18;67.54;98543.81;4969827;28;5298;-75
2023/08/02 03:31:48;;;;;;;;;;;;;;;17.19;67.56;98550.03;4969564;28;4598;-72
2023/08/02 03:34:40;;;;;;;;;;;;;;;17.18;67.54;98551.16;4967954;28;5117;-75
2023/08/02 03:37:32;;;;;;;;;;;;;;;17.17;67.50;98558.50;4968716;28;4348;-75
2023/08/02 03:40:24;;;;;;;;;;;;;;;17.18;67.32;98562.03;4970246;28;4857;-74
2023/08/02 03:43:16;;;;;;;;;;;;;;;17.17;67.38;98561.22;4970025;28;5194;-74
2023/08/02 03:46:07;;;;;;;;;;;;;;;17.16;67.40;98569.72;4969113;28;5068;-76
2023/08/02 03:48:59;;;;;;;;;;;;;;;17.16;67.36;98569.72;4970743;28;5289;-74
2023/08/02 03:51:51;;;;;;;;;;;;;;;17.17;67.45;98563.13;4969420;28;4748;-74
2023/08/02 03:54:47;;;;;;;;;;;;;;;17.15;67.51;98557.22;4968771;28;4602;-73
2023/08/02 03:57:39;;;;;;;;;;;;;;;17.14;67.16;98561.03;4968999;28;5067;-74
2023/08/02 04:00:30;;;;;;;;;;;;;;;17.14;67.33;98552.88;4968701;28;4452;-74
2023/08/02 04:03:22;;;;;;;;;;;;;;;17.13;67.45;98557.53;4969756;28;5180;-73
2023/08/02 04:06:14;;;;;;;;;;;;;;;17.12;67.37;98560.53;4971231;28;4705;-75
2023/08/02 04:09:06;;;;;;;;;;;;;;;17.17;67.32;98563.94;4973878;28;4882;-76
2023/08/02 04:11:58;;;;;;;;;;;;;;;17.13;67.17;98571.13;4970943;28;5131;-74
2023/08/02 04:14:50;;;;;;;;;;;;;;;17.12;67.27;98569.53;4976210;28;4259;-74
2023/08/02 04:17:42;;;;;;;;;;;;;;;17.12;67.26;98565.97;4974145;28;5086;-73
2023/08/02 04:20:34;;;;;;;;;;;;;;;17.15;67.32;98570.81;4973310;28;4374;-76
2023/08/02 04:23:26;;;;;;;;;;;;;;;17.12;67.04;98574.13;4972643;28;5032;-76
2023/08/02 04:26:18;;;;;;;;;;;;;;;17.12;67.07;98571.41;4974823;28;5041;-75
2023/08/02 04:29:10;;;;;;;;;;;;;;;17.11;67.23;98561.66;4972852;28;5041;-74
2023/08/02 04:32:02;;;;;;;;;;;;;;;17.13;66.93;98564.88;4973228;28;4870;-75
2023/08/02 04:34:54;;;;;;;;;;;;;;;17.13;67.04;98562.16;4971960;28;4354;-75
2023/08/02 04:37:46;;;;;;;;;;;;;;;17.18;66.90;98554.69;4971862;28;4811;-75
2023/08/02 04:40:38;;;;;;;;;;;;;;;17.16;66.91;98559.63;4972080;28;5379;-75
2023/08/02 04:43:30;;;;;;;;;;;;;;;17.19;66.81;98560.91;4971269;28;4509;-75
2023/08/02 04:46:22;;;;;;;;;;;;;;;17.31;66.26;98558.41;4970175;28;4536;-75
2023/08/02 04:49:14;;;;;;;;;;;;;;;17.19;66.67;98550.03;4968335;28;4529;-76
2023/08/02 04:52:06;;;;;;;;;;;;;;;17.31;66.31;98549.47;4972343;28;5080;-75
2023/08/02 04:54:58;;;;;;;;;;;;;;;17.21;66.44;98548.63;4970885;28;5097;-76
2023/08/02 04:57:50;;;;;;;;;;;;;;;17.23;66.32;98551.00;4969805;28;4596;-75
2023/08/02 05:00:42;;;;;;;;;;;;;;;17.25;66.14;98551.50;4970477;28;4208;-74
2023/08/02 05:03:34;;;;;;;;;;;;;;;17.22;66.49;98546.69;4969844;28;5043;-75
2023/08/02 05:06:26;;;;;;;;;;;;;;;17.43;65.58;98549.69;4969861;28;5039;-75
2023/08/02 05:09:18;;;;;;;;;;;;;;;17.26;66.12;98547.66;4971100;28;4657;-74
2023/08/02 05:12:10;;;;;;;;;;;;;;;17.27;66.28;98546.56;4972026;28;4294;-75
2023/08/02 05:15:02;;;;;;;;;;;;;;;17.19;66.42;98541.88;4972666;28;5154;-75
2023/08/02 05:17:54;;;;;;;;;;;;;;;17.26;66.16;98547.66;4969029;28;4388;-75
2023/08/02 05:20:46;;;;;;;;;;;;;;;17.28;66.03;98548.16;4972673;28;4655;-75
2023/08/02 05:23:38;;;;;;;;;;;;;;;17.34;65.55;98540.66;4973182;28;4422;-74
2023/08/02 05:26:30;;;;;;;;;;;;;;;17.21;66.19;98545.09;4971080;28;4513;-75
2023/08/02 05:29:22;;;;;;;;;;;;;;;17.13;66.42;98535.75;4973527;28;4494;-75
2023/08/02 05:32:14;;;;;;;;;;;;;;;17.22;66.15;98527.66;4970459;28;4462;-75
2023/08/02 05:35:06;;;;;;;;;;;;;;;17.24;66.06;98541.75;4971156;28;4329;-75
2023/08/02 05:37:58;;;;;;;;;;;;;;;17.14;66.31;98536.56;4970720;28;5186;-75
2023/08/02 05:40:50;;;;;;;;;;;;;;;17.17;66.10;98541.38;4971493;28;5075;-74
2023/08/02 05:43:44;;;;;;;;;;;;;;;17.35;65.68;98542.28;4971608;28;4327;-76
2023/08/02 05:46:36;;;;;;;;;;;;;;;17.31;65.70;98535.84;4969676;28;4361;-74
2023/08/02 05:49:28;;;;;;;;;;;;;;;17.18;66.02;98543.00;4972607;28;4914;-76
2023/08/02 05:52:20;;;;;;;;;;;;;;;17.24;65.74;98536.31;4970625;28;4470;-75
2023/08/02 05:55:12;;;;;;;;;;;;;;;17.09;66.23;98547.56;4973114;28;5186;-75
2023/08/02 05:58:04;;;;;;;;;;;;;;;17.17;65.88;98535.94;4971764;28;4337;-76
2023/08/02 06:00:56;;;;;;;;;;;;;;;17.23;65.98;98534.69;4969838;28;5091;-74
2023/08/02 06:03:48;;;;;;;;;;;;;;;17.21;65.91;98537.75;4970619;28;4978;-75
2023/08/02 06:06:40;;;;;;;;;;;;;;;17.16;66.13;98537.88;4970077;28;4458;-76
2023/08/02 06:09:32;;;;;;;;;;;;;;;17.28;65.69;98531.03;4972263;28;4819;-73
2023/08/02 06:12:24;;;;;;;;;;;;;;;17.18;65.85;98532.13;4972741;28;4661;-75
2023/08/02 06:15:16;;;;;;;;;;;;;;;17.12;66.09;98531.44;4971115;28;4483;-74
2023/08/02 06:18:08;;;;;;;;;;;;;;;17.08;66.13;98522.28;4971156;28;4966;-74
2023/08/02 06:21:00;;;;;;;;;;;;;;;17.00;66.30;98523.88;4970992;28;4546;-73
2023/08/02 06:23:52;;;;;;;;;;;;;;;16.97;66.59;98524.50;4969836;28;5142;-75
2023/08/02 06:26:44;;;;;;;;;;;;;;;16.95;66.54;98518.56;4972109;28;5080;-73
2023/08/02 06:29:36;;;;;;;;;;;;;;;16.92;66.44;98516.47;4968850;28;5169;-76
2023/08/02 06:32:30;;;;;;;;;;;;;;;16.94;66.63;98516.13;4970167;28;5266;-75
2023/08/02 06:35:22;;;;;;;;;;;;;;;16.92;66.66;98513.75;4970860;28;4450;-74
2023/08/02 06:38:13;;;;;;;;;;;;;;;16.45;66.68;98439.06;4969783;28;5300;-74
2023/08/02 06:41:05;;;;;;;;;;;;;;;16.92;66.55;98513.75;4969491;28;4644;-74
2023/08/02 06:43:57;;;;;;;;;;;;;;;16.91;66.65;98517.59;4968269;28;4611;-74
2023/08/02 06:46:49;;;;;;;;;;;;;;;16.91;66.75;98523.03;4968758;28;5325;-76
2023/08/02 06:49:41;;;;;;;;;;;;;;;16.90;66.54;98520.59;4968772;28;5059;-75
2023/08/02 06:52:32;;;;;;;;;;;;;;;16.91;66.70;98523.03;4971158;28;5185;-75
2023/08/02 06:55:24;;;;;;;;;;;;;;;16.91;66.54;98516.75;4968715;28;4936;-76
2023/08/02 06:58:16;;;;;;;;;;;;;;;16.90;66.68;98515.16;4969764;28;4473;-75
2023/08/02 07:01:08;;;;;;;;;;;;;;;16.90;66.55;98517.88;4969910;28;5110;-75
2023/08/02 07:04:00;;;;;;;;;;;;;;;16.89;66.51;98517.09;4968280;28;5078;-77
2023/08/02 07:06:52;;;;;;;;;;;;;;;16.90;66.54;98517.88;4970735;28;4525;-76
2023/08/02 07:09:44;;;;;;;;;;;;;;;16.90;66.55;98518.66;4971730;28;5415;-75
2023/08/02 07:12:36;;;;;;;;;;;;;;;16.90;66.64;98518.66;4971597;28;4578;-76
2023/08/02 07:15:28;;;;;;;;;;;;;;;16.90;66.57;98515.97;4969703;28;4501;-75
2023/08/02 07:18:20;;;;;;;;;;;;;;;16.91;66.52;98524.91;4969869;28;5455;-76
2023/08/02 07:21:12;;;;;;;;;;;;;;;16.91;66.64;98514.03;4970990;28;4887;-76
2023/08/02 07:24:04;;;;;;;;;;;;;;;16.90;66.51;98510.50;4970796;28;5217;-76
2023/08/02 07:26:56;;;;;;;;;;;;;;;16.91;66.46;98522.19;4970408;28;4413;-76
2023/08/02 07:29:49;;;;;;;;;;;;;;;16.91;66.47;98519.47;4970527;28;4784;-77
2023/08/02 07:32:40;;;;;;;;;;;;;;;16.91;66.57;98517.59;4968466;28;5159;-77
2023/08/02 07:35:31;;;;;;;;;;;;;;;16.91;66.62;98516.75;4969828;28;4461;-76
2023/08/02 07:38:23;;;;;;;;;;;;;;;16.92;66.48;98521.91;4970124;28;4454;-77
2023/08/02 07:41:15;;;;;;;;;;;;;;;16.93;66.46;98526.22;4968915;28;5324;-76
2023/08/02 07:44:07;;;;;;;;;;;;;;;16.94;66.46;98521.56;4969825;28;4515;-77
2023/08/02 07:46:59;;;;;;;;;;;;;;;16.95;66.39;98517.75;4967366;28;4565;-76
2023/08/02 07:49:51;;;;;;;;;;;;;;;16.94;66.66;98521.56;4969212;28;5273;-75
2023/08/02 07:52:43;;;;;;;;;;;;;;;16.95;66.71;98523.19;4961811;28;4901;-76
2023/08/02 07:55:35;;;;;;;;;;;;;;;16.95;66.71;98532.16;4964916;28;5095;-76
2023/08/02 07:58:27;;;;;;;;;;;;;;;16.95;66.69;98534.88;4969086;28;4474;-75
2023/08/02 08:01:19;;;;;;;;;;;;;;;16.95;66.69;98523.19;4967568;28;5190;-75
2023/08/02 08:04:11;;;;;;;;;;;;;;;16.96;66.64;98525.59;4969036;28;5052;-76
2023/08/02 08:07:06;;;;;;;;;;;;;;;16.96;66.65;98528.31;4968819;28;5066;-77
2023/08/02 08:09:58;;;;;;;;;;;;;;;16.96;66.51;98522.88;4968190;28;5294;-76
2023/08/02 08:12:50;;;;;;;;;;;;;;;16.98;66.78;98525.28;4968228;28;5174;-75
2023/08/02 08:15:42;;;;;;;;;;;;;;;16.98;66.69;98528.00;4970245;28;5100;-75
2023/08/02 08:18:34;;;;;;;;;;;;;;;16.99;66.75;98522.25;4969805;28;4628;-75
2023/08/02 08:21:26;;;;;;;;;;;;;;;17.00;66.73;98531.19;4967315;28;4366;-75
2023/08/02 08:24:18;;;;;;;;;;;;;;;17.00;66.81;98523.03;4970063;28;4468;-75
2023/08/02 08:27:09;;;;;;;;;;;;;;;17.00;66.71;98526.59;4967405;28;4455;-76
2023/08/02 08:30:00;;;;;;;;;;;;;;;17.01;66.78;98516.50;4969303;28;5218;-76
2023/08/02 08:32:52;;;;;;;;;;;;;;;17.01;66.51;98517.31;4969607;28;4635;-75
2023/08/02 08:35:44;;;;;;;;;;;;;;;17.01;66.70;98527.38;4969287;28;4681;-75
2023/08/02 08:38:36;;;;;;;;;;;;;;;17.02;66.67;98520.81;4968814;28;4562;-74
2023/08/02 08:41:28;;;;;;;;;;;;;;;17.02;66.73;98521.63;4967862;28;4633;-75
2023/08/02 08:44:20;;;;;;;;;;;;;;;17.04;66.55;98521.31;4967910;28;4538;-76
2023/08/02 08:47:17;;;;;;;;;;;;;;;17.05;66.43;98514.75;4969683;28;4354;-77
2023/08/02 08:50:09;;;;;;;;;;;;;;;17.06;66.46;98516.38;4969176;28;5043;-76
2023/08/02 08:53:01;;;;;;;;;;;;;;;17.07;66.66;98512.53;4972528;28;4434;-76
2023/08/02 08:55:52;;;;;;;;;;;;;;;17.07;66.44;98509.81;4972501;28;4602;-76
2023/08/02 08:58:44;;;;;;;;;;;;;;;17.07;66.49;98522.63;4971746;28;4904;-75
2023/08/02 09:01:36;;;;;;;;;;;;;;;17.06;66.43;98516.38;4973123;28;4577;-77
2023/08/02 09:04:28;;;;;;;;;;;;;;;17.05;66.66;98511.25;4985646;28;3789;-77
2023/08/02 09:07:20;;;;;;;;;;;;;;;17.02;66.81;98518.91;4974914;28;4451;-77
2023/08/02 09:10:12;;;;;;;;;;;;;;;17.02;66.72;98512.66;4975353;28;4318;-77
2023/08/02 09:13:04;;;;;;;;;;;;;;;17.01;66.62;98511.88;4982645;28;2112;-78
2023/08/02 09:15:56;;;;;;;;;;;;;;;17.01;66.70;98514.59;4984814;28;4728;-77
2023/08/02 09:18:48;;;;;;;;;;;;;;;17.02;66.75;98520.81;4985543;28;1664;-77
2023/08/02 09:21:40;;;;;;;;;;;;;;;17.01;66.65;98514.59;4985477;28;1643;-76
2023/08/02 09:24:31;;;;;;;;;;;;;;;17.02;66.73;98515.38;4978449;28;4809;-76
2023/08/02 09:27:23;;;;;;;;;;;;;;;17.03;66.76;98514.28;4969997;28;5332;-75
2023/08/02 09:30:15;;;;;;;;;;;;;;;17.04;66.72;98515.88;4969810;28;5116;-76
2023/08/02 09:33:07;;;;;;;;;;;;;;;17.03;66.83;98514.28;4970315;28;5351;-76
2023/08/02 09:35:59;;;;;;;;;;;;;;;17.03;66.78;98504.22;4971825;28;4920;-76
2023/08/02 09:38:51;;;;;;;;;;;;;;;17.05;66.73;98497.66;4970604;28;4611;-76
2023/08/02 09:41:43;;;;;;;;;;;;;;;17.04;66.81;98496.84;4971948;28;5307;-78
2023/08/02 09:44:35;;;;;;;;;;;;;;;17.06;66.85;98491.09;4969496;28;4261;-78
2023/08/02 09:47:27;;;;;;;;;;;;;;;17.06;66.89;98488.38;4970908;28;4634;-77
2023/08/02 09:50:20;;;;;;;;;;;;;;;17.06;66.85;98480.19;4970914;28;4350;-78
2023/08/02 09:53:12;;;;;;;;;;;;;;;17.05;66.83;98476.69;4970341;28;5038;-77
2023/08/02 09:56:04;;;;;;;;;;;;;;;17.06;66.86;98483.75;4970183;28;4579;-77
2023/08/02 09:58:56;;;;;;;;;;;;;;;17.07;66.68;98479.91;4972427;28;4619;-77
2023/08/02 10:01:48;;;;;;;;;;;;;;;17.07;66.75;98479.91;4968542;28;4309;-77
2023/08/02 10:04:40;;;;;;;;;;;;;;;17.08;66.72;98475.25;4971197;28;4226;-77
2023/08/02 10:07:32;;;;;;;;;;;;;;;17.08;66.72;98475.25;4970302;28;5036;-77
2023/08/02 10:10:24;;;;;;;;;;;;;;;17.09;66.86;98480.41;4969845;28;4963;-78
2023/08/02 10:13:16;;;;;;;;;;;;;;;17.10;66.86;98478.47;4969508;28;4623;-77
2023/08/02 10:16:08;;;;;;;;;;;;;;;17.09;66.86;98469.53;4967037;28;4466;-77
2023/08/02 10:19:01;;;;;;;;;;;;;;;17.10;66.88;98471.13;4969726;28;4884;-78
2023/08/02 10:21:53;;;;;;;;;;;;;;;17.11;66.83;98471.91;4972246;28;5069;-77
2023/08/02 10:24:45;;;;;;;;;;;;;;;17.12;66.84;98471.63;4970411;28;4293;-77
2023/08/02 10:27:37;;;;;;;;;;;;;;;17.11;66.83;98463.75;4969790;28;4757;-77
2023/08/02 10:30:29;;;;;;;;;;;;;;;17.11;66.71;98475.44;4967850;28;4984;-76
2023/08/02 10:33:21;;;;;;;;;;;;;;;17.13;66.88;98466.97;4970625;28;5010;-77
2023/08/02 10:36:13;;;;;;;;;;;;;;;17.13;66.87;98464.25;4969724;28;4785;-76
2023/08/02 10:39:04;;;;;;;;;;;;;;;17.13;66.90;98456.09;4970111;28;5191;-78
2023/08/02 10:41:56;;;;;;;;;;;;;;;17.14;66.73;98454.97;4970035;28;4580;-78
2023/08/02 10:44:48;;;;;;;;;;;;;;;17.16;66.79;98453.53;4967958;28;5425;-76
2023/08/02 10:47:40;;;;;;;;;;;;;;;17.15;66.80;98460.13;4968775;28;4982;-75
2023/08/02 10:50:34;;;;;;;;;;;;;;;17.16;66.83;98456.28;4969630;28;4936;-76
2023/08/02 10:53:26;;;;;;;;;;;;;;;17.19;66.69;98457.56;4969017;28;5067;-77
2023/08/02 10:56:21;;;;;;;;;;;;;;;17.19;66.88;98457.56;4968826;28;4509;-76
2023/08/02 10:59:12;;;;;;;;;;;;;;;17.19;66.91;98449.41;4969362;28;4968;-78
2023/08/02 11:02:04;;;;;;;;;;;;;;;17.20;66.78;98448.28;4967855;28;5041;-75
2023/08/02 11:04:56;;;;;;;;;;;;;;;16.76;66.84;98377.41;4969969;28;5035;-77
2023/08/02 11:07:48;;;;;;;;;;;;;;;17.22;66.85;98441.41;4967900;28;4430;-76
2023/08/02 11:10:40;;;;;;;;;;;;;;;16.90;66.66;98398.25;4971300;28;4617;-77
2023/08/02 11:13:32;;;;;;;;;;;;;;;17.24;67.04;98449.28;4969481;28;5303;-75
2023/08/02 11:16:23;;;;;;;;;;;;;;;17.26;66.95;98447.00;4969496;28;4537;-79
2023/08/02 11:19:15;;;;;;;;;;;;;;;17.25;66.93;98450.88;4968256;28;5355;-77
2023/08/02 11:22:07;;;;;;;;;;;;;;;17.26;66.95;98441.56;4967141;28;4760;-77
2023/08/02 11:24:59;;;;;;;;;;;;;;;17.27;66.85;98448.63;4969085;28;4964;-77
2023/08/02 11:27:51;;;;;;;;;;;;;;;17.27;67.04;98445.91;4966346;28;5309;-76
2023/08/02 11:30:44;;;;;;;;;;;;;;;17.30;66.99;98449.94;4968167;28;5230;-77
2023/08/02 11:33:35;;;;;;;;;;;;;;;17.30;66.82;98447.22;4968570;28;4817;-76
2023/08/02 11:36:27;;;;;;;;;;;;;;;17.31;67.13;98440.66;4968765;28;5217;-77
2023/08/02 11:39:19;;;;;;;;;;;;;;;17.31;67.01;98433.28;4968669;28;5467;-77
2023/08/02 11:42:11;;;;;;;;;;;;;;;17.32;66.89;98431.34;4968799;28;4960;-77
2023/08/02 11:45:03;;;;;;;;;;;;;;;17.33;66.95;98430.25;4969993;28;4458;-76
2023/08/02 11:47:55;;;;;;;;;;;;;;;17.35;66.96;98433.44;4968934;28;5529;-76
2023/08/02 11:50:47;;;;;;;;;;;;;;;17.36;66.96;98429.63;4970428;28;5258;-75
2023/08/02 11:53:39;;;;;;;;;;;;;;;17.36;67.10;98437.78;4968770;28;4479;-74
2023/08/02 11:56:31;;;;;;;;;;;;;;;17.36;66.90;98430.41;4970501;28;4628;-75
2023/08/02 11:59:23;;;;;;;;;;;;;;;17.38;66.91;98438.25;4967791;28;5206;-76
2023/08/02 12:02:15;;;;;;;;;;;;;;;17.39;67.01;98434.44;4968990;28;4876;-75
2023/08/02 12:05:08;;;;;;;;;;;;;;;17.38;67.12;98428.19;4970627;28;4737;-76
2023/08/02 12:08:00;;;;;;;;;;;;;;;17.40;67.21;98427.88;4970501;28;4676;-77
2023/08/02 12:10:52;;;;;;;;;;;;;;;17.41;67.12;98424.84;4967991;28;4243;-75
2023/08/02 12:13:45;;;;;;;;;;;;;;;17.43;67.12;98419.06;4969155;28;4240;-76
2023/08/02 12:16:36;;;;;;;;;;;;;;;17.44;67.19;98415.22;4968453;28;4827;-76
2023/08/02 12:19:28;;;;;;;;;;;;;;;17.45;67.22;98414.91;4971736;28;4860;-77
2023/08/02 12:22:20;;;;;;;;;;;;;;;17.46;67.10;98413.78;4969425;28;4458;-76
2023/08/02 12:25:12;;;;;;;;;;;;;;;17.47;67.06;98417.31;4969025;28;4814;-76
2023/08/02 12:28:04;;;;;;;;;;;;;;;17.48;67.29;98416.22;4974502;28;4366;-75
2023/08/02 12:30:56;;;;;;;;;;;;;;;17.49;67.38;98407.72;4970989;28;5014;-78
2023/08/02 12:33:48;;;;;;;;;;;;;;;17.51;67.34;98407.41;4972049;28;5056;-76
2023/08/02 12:36:40;;;;;;;;;;;;;;;17.52;67.12;98402.75;4973619;28;4451;-75
2023/08/02 12:39:32;;;;;;;;;;;;;;;17.52;67.42;98400.84;4975419;28;4445;-76
2023/08/02 12:42:24;;;;;;;;;;;;;;;17.53;67.16;98398.91;4970428;28;4537;-77
2023/08/02 12:45:15;;;;;;;;;;;;;;;17.55;67.37;98392.03;4973566;28;5143;-77
2023/08/02 12:48:07;;;;;;;;;;;;;;;17.56;67.43;98401.81;4972196;28;4859;-77
2023/08/02 12:50:59;;;;;;;;;;;;;;;17.57;67.27;98389.81;4972995;28;4450;-77
2023/08/02 12:53:51;;;;;;;;;;;;;;;17.57;67.31;98397.97;4973698;28;4468;-76
2023/08/02 12:56:43;;;;;;;;;;;;;;;17.59;67.34;98395.75;4973692;28;4643;-76
2023/08/02 12:59:35;;;;;;;;;;;;;;;17.61;67.57;98395.41;4972864;28;4563;-77
2023/08/02 13:02:27;;;;;;;;;;;;;;;17.62;67.37;98397.03;4983620;28;4110;-75
2023/08/02 13:05:19;;;;;;;;;;;;;;;17.63;67.53;98393.19;4987085;28;1635;-77
2023/08/02 13:08:13;;;;;;;;;;;;;;;17.64;67.40;98375.72;4985468;28;1876;-75
2023/08/02 13:11:04;;;;;;;;;;;;;;;17.65;67.36;98380.06;4985628;28;1518;-75
2023/08/02 13:13:56;;;;;;;;;;;;;;;17.66;67.30;98378.94;4984456;28;2303;-75
2023/08/02 13:16:51;;;;;;;;;;;;;;;17.67;67.41;98373.16;4985285;28;2105;-76
2023/08/02 13:19:42;;;;;;;;;;;;;;;17.68;67.57;98363.88;4983202;28;5085;-77
2023/08/02 13:22:34;;;;;;;;;;;;;;;17.68;67.48;98363.09;4984261;28;2510;-77
2023/08/02 13:25:26;;;;;;;;;;;;;;;17.71;67.74;98365.97;4980163;28;4696;-78
2023/08/02 13:28:18;;;;;;;;;;;;;;;17.72;67.44;98369.50;4972930;28;5357;-77
2023/08/02 13:31:10;;;;;;;;;;;;;;;17.73;67.47;98367.56;4971939;28;5104;-78
2023/08/02 13:34:03;;;;;;;;;;;;;;;17.74;67.66;98372.69;4971023;28;4515;-76
2023/08/02 13:36:55;;;;;;;;;;;;;;;17.75;67.68;98376.22;4974290;28;5002;-75
2023/08/02 13:39:47;;;;;;;;;;;;;;;17.76;67.75;98372.38;4971388;28;5387;-76
2023/08/02 13:42:39;;;;;;;;;;;;;;;17.78;67.49;98378.31;4971361;28;5333;-75
2023/08/02 13:45:31;;;;;;;;;;;;;;;17.78;67.61;98370.97;4971708;28;5099;-77
2023/08/02 13:48:23;;;;;;;;;;;;;;;17.79;67.79;98369.81;4972840;28;4934;-75
2023/08/02 13:51:15;;;;;;;;;;;;;;;17.81;67.58;98362.16;4971852;28;5040;-78
2023/08/02 13:54:07;;;;;;;;;;;;;;;17.83;67.78;98365.38;4972010;28;4491;-76
2023/08/02 13:56:59;;;;;;;;;;;;;;;17.83;67.65;98359.91;4971143;28;4704;-75
2023/08/02 13:59:51;;;;;;;;;;;;;;;17.85;67.82;98359.56;4971590;28;4468;-76
2023/08/02 14:02:43;;;;;;;;;;;;;;;17.85;67.84;98363.13;4971076;28;4914;-76
2023/08/02 14:05:35;;;;;;;;;;;;;;;17.87;67.71;98360.88;4971339;28;5201;-76
2023/08/02 14:08:27;;;;;;;;;;;;;;;17.89;67.88;98360.56;4972637;28;4376;-80
2023/08/02 14:11:19;;;;;;;;;;;;;;;17.90;67.93;98359.44;4972493;28;4669;-75
2023/08/02 14:14:13;;;;;;;;;;;;;;;17.91;67.82;98363.75;4971126;28;4696;-76
2023/08/02 14:17:04;;;;;;;;;;;;;;;17.93;67.86;98356.06;4971955;28;4521;-76
2023/08/02 14:19:56;;;;;;;;;;;;;;;17.92;67.98;98358.00;4971609;28;4324;-77
2023/08/02 14:22:48;;;;;;;;;;;;;;;17.96;67.91;98354.63;4970574;28;5098;-76
2023/08/02 14:25:40;;;;;;;;;;;;;;;17.95;67.99;98356.56;4967229;28;4595;-78
2023/08/02 14:28:32;;;;;;;;;;;;;;;17.97;67.92;98362.47;4970833;28;5091;-76
2023/08/02 14:31:24;;;;;;;;;;;;;;;17.98;68.08;98353.19;4970126;28;4938;-78
2023/08/02 14:34:21;;;;;;;;;;;;;;;18.00;67.99;98353.66;4970924;28;4347;-77
2023/08/02 14:37:13;;;;;;;;;;;;;;;18.01;68.22;98354.47;4969708;28;5191;-77
2023/08/02 14:40:04;;;;;;;;;;;;;;;18.03;68.11;98354.91;4971513;28;4526;-78
2023/08/02 14:42:56;;;;;;;;;;;;;;;18.03;68.01;98347.56;4971512;28;5007;-76
2023/08/02 14:45:48;;;;;;;;;;;;;;;18.06;67.99;98340.66;4971037;28;4642;-77
2023/08/02 14:48:40;;;;;;;;;;;;;;;18.08;68.46;98339.22;4969335;28;5011;-79
2023/08/02 14:51:32;;;;;;;;;;;;;;;18.09;68.21;98340.03;4971297;28;4490;-78
2023/08/02 14:54:24;;;;;;;;;;;;;;;18.10;68.33;98338.91;4969037;28;4913;-77
2023/08/02 14:57:16;;;;;;;;;;;;;;;18.10;68.37;98334.25;4970533;28;4345;-79
2023/08/02 15:00:08;;;;;;;;;;;;;;;18.12;68.46;98340.19;4968167;28;4465;-77
2023/08/02 15:02:59;;;;;;;;;;;;;;;18.14;68.19;98342.56;4969000;28;4216;-77
2023/08/02 15:05:51;;;;;;;;;;;;;;;18.14;68.42;98335.19;4971120;28;4918;-77
2023/08/02 15:08:43;;;;;;;;;;;;;;;18.17;68.32;98336.47;4970881;28;5057;-75